Time;durP1;ratioP1;P1;durP2;ratioP2;P2;SDS_P1;SDS_P2;PMS_P1;PMS_P2;Temp;Humidity;BMP_temperature;BMP_pressure;BME280_temperature;BME280_humidity;BME280_pressure;Samples;Min_cycle;Max_cycle;Signal;HPM_P1;HPM_P2
2023/03/29 00:01:08;;;;;;;;;;;;;;;3.25;62.06;101678.00;4122733;28;20392;-61
2023/03/29 00:03:12;;;;;;;;;;;;;;;3.18;62.28;101674.91;4121897;28;20028;-63
2023/03/29 00:05:14;;;;;;;;;;;;;;;3.11;62.47;101678.97;4122412;28;20519;-64
2023/03/29 00:07:16;;;;;;;;;;;;;;;3.03;62.73;101676.81;4120738;28;20021;-64
2023/03/29 00:09:18;;;;;;;;;;;;;;;2.98;62.91;101670.94;4121360;28;20368;-64
2023/03/29 00:11:21;;;;;;;;;;;;;;;2.99;63.08;101669.13;4122426;28;20028;-62
2023/03/29 00:13:25;;;;;;;;;;;;;;;2.97;63.06;101669.22;4122525;28;20099;-61
2023/03/29 00:15:27;;;;;;;;;;;;;;;2.95;63.35;101671.16;4122407;28;20020;-64
2023/03/29 00:17:29;;;;;;;;;;;;;;;2.93;63.41;101662.41;4122884;28;20053;-64
2023/03/29 00:19:34;;;;;;;;;;;;;;;2.94;63.55;101660.59;4122480;28;20057;-64
2023/03/29 00:21:36;;;;;;;;;;;;;;;2.94;63.58;101656.09;4122623;28;20032;-64
2023/03/29 00:23:38;;;;;;;;;;;;;;;2.91;63.68;101658.97;4122402;28;20669;-64
2023/03/29 00:25:44;;;;;;;;;;;;;;;2.91;63.76;101658.13;4122550;28;20016;-64
2023/03/29 00:27:46;;;;;;;;;;;;;;;2.89;63.84;101642.22;4121618;28;20025;-64
2023/03/29 00:29:49;;;;;;;;;;;;;;;2.89;63.94;101647.56;4122628;28;20570;-64
2023/03/29 00:31:53;;;;;;;;;;;;;;;2.91;64.03;101650.13;4127898;28;20033;-64
2023/03/29 00:33:55;;;;;;;;;;;;;;;2.95;63.98;101646.28;4152979;28;20008;-64
2023/03/29 00:35:57;;;;;;;;;;;;;;;3.00;63.80;101644.16;4122456;28;20082;-64
2023/03/29 00:37:59;;;;;;;;;;;;;;;3.06;63.50;101641.91;4121828;28;20477;-64
2023/03/29 00:40:06;;;;;;;;;;;;;;;3.12;63.36;101648.66;4122338;28;20028;-62
2023/03/29 00:42:10;;;;;;;;;;;;;;;3.15;63.42;101645.75;4120466;28;20028;-62
2023/03/29 00:44:32;;;;;;;;;;;;;;;3.14;63.55;101643.19;4128361;28;20025;-63
2023/03/29 00:46:36;;;;;;;;;;;;;;;3.14;63.45;101641.38;4108047;28;20013;-63
2023/03/29 00:48:38;;;;;;;;;;;;;;;3.12;63.37;101639.75;4121920;28;20005;-63
2023/03/29 00:50:40;;;;;;;;;;;;;;;3.09;63.62;101638.19;4122260;28;20020;-64
2023/03/29 00:52:43;;;;;;;;;;;;;;;3.12;63.57;101631.75;4119874;28;20021;-64
2023/03/29 00:54:45;;;;;;;;;;;;;;;3.13;63.61;101628.97;4112588;28;20028;-64
2023/03/29 00:56:48;;;;;;;;;;;;;;;3.14;63.41;101632.53;4121541;28;20021;-64
2023/03/29 00:58:51;;;;;;;;;;;;;;;3.11;63.51;101630.91;4136662;28;20917;-62
2023/03/29 01:00:54;;;;;;;;;;;;;;;3.09;63.69;101629.28;4122538;28;20571;-64
2023/03/29 01:02:58;;;;;;;;;;;;;;;3.00;63.88;101623.66;4120462;28;20020;-62
2023/03/29 01:05:04;;;;;;;;;;;;;;;3.01;64.00;101621.81;4120360;28;20033;-64
2023/03/29 01:07:07;;;;;;;;;;;;;;;3.06;64.20;101619.72;4121918;28;20393;-62
2023/03/29 01:09:09;;;;;;;;;;;;;;;3.10;63.99;101612.34;4123982;28;20020;-64
2023/03/29 01:11:12;;;;;;;;;;;;;;;3.14;63.95;101603.16;4125508;28;20024;-63
2023/03/29 01:13:16;;;;;;;;;;;;;;;3.19;64.02;101607.19;4146492;28;20013;-63
2023/03/29 01:15:19;;;;;;;;;;;;;;;3.19;63.83;101609.88;4147067;28;20024;-63
2023/03/29 01:17:24;;;;;;;;;;;;;;;3.19;64.02;101606.34;4130618;28;20009;-63
2023/03/29 01:19:28;;;;;;;;;;;;;;;3.22;63.74;101593.63;4138924;28;20012;-64
2023/03/29 01:21:31;;;;;;;;;;;;;;;3.25;63.70;101587.22;4123401;28;20024;-62
2023/03/29 01:23:38;;;;;;;;;;;;;;;3.25;63.86;101588.06;4131165;28;20532;-63
2023/03/29 01:25:41;;;;;;;;;;;;;;;3.21;64.09;101585.72;4124975;28;20037;-64
2023/03/29 01:27:49;;;;;;;;;;;;;;;3.20;64.09;101584.03;4124281;28;20067;-63
2023/03/29 01:29:52;;;;;;;;;;;;;;;3.18;64.33;101578.81;4125106;28;20008;-61
2023/03/29 01:31:56;;;;;;;;;;;;;;;3.19;64.14;101571.66;4125035;28;20014;-61
2023/03/29 01:33:59;;;;;;;;;;;;;;;3.19;64.23;101568.97;4124493;28;20391;-60
2023/03/29 01:36:02;;;;;;;;;;;;;;;3.18;64.17;101569.94;4123414;28;20025;-62
2023/03/29 01:38:07;;;;;;;;;;;;;;;3.19;64.49;101563.63;4129825;28;20344;-63
2023/03/29 01:40:10;;;;;;;;;;;;;;;3.18;64.43;101552.13;4125006;28;20028;-61
2023/03/29 01:42:17;;;;;;;;;;;;;;;3.19;64.45;101547.63;4130506;28;20016;-61
2023/03/29 01:44:21;;;;;;;;;;;;;;;3.19;64.49;101552.97;4124926;28;20044;-62
2023/03/29 01:46:24;;;;;;;;;;;;;;;3.21;64.48;101540.34;4124796;28;20013;-63
2023/03/29 01:48:27;;;;;;;;;;;;;;;3.19;64.43;101542.28;4131070;28;20012;-63
2023/03/29 01:50:32;;;;;;;;;;;;;;;3.18;64.50;101544.09;4147543;28;20016;-62
2023/03/29 01:52:35;;;;;;;;;;;;;;;3.19;64.57;101544.94;4124448;28;20032;-62
2023/03/29 01:54:38;;;;;;;;;;;;;;;3.19;64.45;101535.13;4124644;28;20020;-63
2023/03/29 01:56:40;;;;;;;;;;;;;;;3.17;64.59;101531.72;4124339;28;20024;-62
2023/03/29 01:58:45;;;;;;;;;;;;;;;3.14;64.63;101529.25;4124898;28;20025;-64
2023/03/29 02:00:49;;;;;;;;;;;;;;;3.09;64.72;101517.19;4124399;28;20012;-63
2023/03/29 02:02:51;;;;;;;;;;;;;;;3.06;64.65;101521.78;4124037;28;20037;-63
2023/03/29 02:04:54;;;;;;;;;;;;;;;3.08;64.77;101515.50;4130615;28;20356;-62
2023/03/29 02:06:57;;;;;;;;;;;;;;;3.08;64.76;101512.84;4123322;28;20033;-63
2023/03/29 02:08:59;;;;;;;;;;;;;;;3.08;64.72;101504.84;4124859;28;20012;-63
2023/03/29 02:11:03;;;;;;;;;;;;;;;3.08;64.84;101513.69;4130254;28;20005;-61
2023/03/29 02:13:08;;;;;;;;;;;;;;;3.08;64.89;101513.69;4129878;28;20024;-62
2023/03/29 02:15:11;;;;;;;;;;;;;;;3.08;64.85;101511.00;4124525;28;20026;-63
2023/03/29 02:17:18;;;;;;;;;;;;;;;3.04;64.81;101505.06;4130402;28;20020;-62
2023/03/29 02:19:22;;;;;;;;;;;;;;;3.02;65.00;101503.44;4125378;28;20033;-63
2023/03/29 02:21:25;;;;;;;;;;;;;;;2.99;65.01;101504.50;4122919;28;20042;-62
2023/03/29 02:23:28;;;;;;;;;;;;;;;2.98;65.10;101505.47;4146373;28;20025;-63
2023/03/29 02:25:31;;;;;;;;;;;;;;;2.96;65.11;101502.09;4146170;28;20084;-61
2023/03/29 02:27:33;;;;;;;;;;;;;;;2.98;65.25;101501.94;4132634;28;20013;-63
2023/03/29 02:29:35;;;;;;;;;;;;;;;2.98;65.33;101500.16;4130478;28;20523;-64
2023/03/29 02:31:38;;;;;;;;;;;;;;;2.97;65.29;101492.25;4123832;28;20036;-60
2023/03/29 02:33:44;;;;;;;;;;;;;;;2.96;65.38;101483.41;4122591;28;20402;-61
2023/03/29 02:35:52;;;;;;;;;;;;;;;2.89;65.51;101474.13;4129989;28;20029;-61
2023/03/29 02:37:55;;;;;;;;;;;;;;;2.95;65.44;101483.50;4129113;28;20052;-63
2023/03/29 02:39:58;;;;;;;;;;;;;;;2.95;65.63;101475.50;4130108;28;20049;-62
2023/03/29 02:42:00;;;;;;;;;;;;;;;2.94;65.59;101477.28;4123595;28;20118;-63
2023/03/29 02:44:03;;;;;;;;;;;;;;;2.92;65.59;101476.56;4122631;28;20060;-60
2023/03/29 02:46:06;;;;;;;;;;;;;;;2.91;65.90;101474.00;4129382;28;20519;-63
2023/03/29 02:48:09;;;;;;;;;;;;;;;2.93;66.02;101474.75;4123454;28;20021;-63
2023/03/29 02:50:12;;;;;;;;;;;;;;;2.94;65.66;101477.28;4122650;28;20024;-63
2023/03/29 02:52:15;;;;;;;;;;;;;;;2.91;65.62;101468.66;4123238;28;20033;-63
2023/03/29 02:54:18;;;;;;;;;;;;;;;2.86;65.78;101467.16;4122516;28;20024;-63
2023/03/29 02:56:20;;;;;;;;;;;;;;;2.88;65.95;101464.38;4122587;28;20329;-63
2023/03/29 02:58:25;;;;;;;;;;;;;;;2.87;65.97;101458.22;4129875;28;20020;-63
2023/03/29 03:00:27;;;;;;;;;;;;;;;2.87;65.85;101460.03;4130127;28;20028;-62
2023/03/29 03:02:29;;;;;;;;;;;;;;;2.88;66.02;101459.06;4136725;28;20357;-63
2023/03/29 03:04:34;;;;;;;;;;;;;;;2.86;65.88;101450.31;4154325;28;20072;-63
2023/03/29 03:06:38;;;;;;;;;;;;;;;2.81;66.15;101458.66;4122242;28;20060;-63
2023/03/29 03:08:40;;;;;;;;;;;;;;;2.81;66.31;101452.47;4136651;28;20020;-63
2023/03/29 03:10:42;;;;;;;;;;;;;;;2.81;66.05;101445.31;4122280;28;20017;-63
2023/03/29 03:12:44;;;;;;;;;;;;;;;2.83;65.96;101454.03;4121641;28;20025;-64
2023/03/29 03:14:47;;;;;;;;;;;;;;;2.86;65.76;101440.50;4122344;28;20020;-63
2023/03/29 03:16:49;;;;;;;;;;;;;;;2.89;65.54;101434.94;4129138;28;20386;-63
2023/03/29 03:18:52;;;;;;;;;;;;;;;2.92;65.36;101441.03;4129491;28;20020;-63
2023/03/29 03:20:54;;;;;;;;;;;;;;;2.92;65.48;101441.88;4129446;28;20017;-63
2023/03/29 03:22:58;;;;;;;;;;;;;;;2.92;65.40;101441.88;4145066;28;20049;-64
2023/03/29 03:25:00;;;;;;;;;;;;;;;2.93;65.71;101432.03;4122774;28;20016;-63
2023/03/29 03:27:02;;;;;;;;;;;;;;;2.91;65.47;101433.97;4121455;28;20392;-63
2023/03/29 03:29:05;;;;;;;;;;;;;;;2.93;65.20;101429.38;4129080;28;20029;-62
2023/03/29 03:31:27;;;;;;;;;;;;;;;2.92;65.36;101427.69;4122885;28;20037;-63
2023/03/29 03:33:47;;;;;;;;;;;;;;;2.81;65.26;101413.28;4123609;28;20022;-62
2023/03/29 03:36:07;;;;;;;;;;;;;;;2.84;65.10;101426.41;4121617;28;20450;-63
2023/03/29 03:38:12;;;;;;;;;;;;;;;2.83;65.37;101414.03;4129131;28;20070;-63
2023/03/29 03:40:14;;;;;;;;;;;;;;;2.82;65.28;101423.00;4146104;28;20080;-63
2023/03/29 03:42:17;;;;;;;;;;;;;;;2.82;65.25;101415.00;4128358;28;20028;-63
2023/03/29 03:44:21;;;;;;;;;;;;;;;2.85;65.01;101416.59;4121793;28;20009;-63
2023/03/29 03:46:32;;;;;;;;;;;;;;;2.79;65.27;101404.56;4137182;28;20028;-63
2023/03/29 03:48:36;;;;;;;;;;;;;;;2.74;65.35;101417.34;4123532;28;20024;-63
2023/03/29 03:51:04;;;;;;;;;;;;;;;2.64;65.39;101411.81;4121451;28;20009;-63
2023/03/29 03:53:08;;;;;;;;;;;;;;;2.61;65.80;101414.72;4120908;28;20016;-63
2023/03/29 03:55:32;;;;;;;;;;;;;;;2.60;65.65;101414.81;4121133;28;20016;-63
2023/03/29 03:57:41;;;;;;;;;;;;;;;2.60;65.77;101418.34;4121274;28;20448;-61
2023/03/29 03:59:47;;;;;;;;;;;;;;;2.59;65.62;101416.66;4121402;28;20021;-62
2023/03/29 04:01:55;;;;;;;;;;;;;;;2.57;65.66;101407.03;4137602;28;19998;-61
2023/03/29 04:03:59;;;;;;;;;;;;;;;2.51;65.75;101411.84;4128512;28;20025;-62
2023/03/29 04:06:02;;;;;;;;;;;;;;;2.52;65.88;101404.69;4120942;28;20036;-63
2023/03/29 04:08:14;;;;;;;;;;;;;;;2.51;65.85;101400.34;4120959;28;20029;-62
2023/03/29 04:10:40;;;;;;;;;;;;;;;2.50;65.82;101409.28;4103427;28;20456;-63
2023/03/29 04:12:50;;;;;;;;;;;;;;;2.48;65.98;101408.56;4121233;28;20076;-63
2023/03/29 04:14:52;;;;;;;;;;;;;;;2.49;65.98;101402.25;4144693;28;20016;-62
2023/03/29 04:16:58;;;;;;;;;;;;;;;2.51;66.01;101413.66;4121192;28;20017;-64
2023/03/29 04:19:21;;;;;;;;;;;;;;;2.48;66.10;101408.56;4122715;28;20037;-61
2023/03/29 04:21:24;;;;;;;;;;;;;;;2.46;65.94;101410.44;4152278;28;20020;-61
2023/03/29 04:23:26;;;;;;;;;;;;;;;2.44;66.19;101394.56;4122400;28;20024;-60
2023/03/29 04:25:28;;;;;;;;;;;;;;;2.45;66.36;101404.28;4122229;28;20028;-63
2023/03/29 04:27:40;;;;;;;;;;;;;;;2.48;65.91;101401.41;4122767;28;20021;-63
2023/03/29 04:29:55;;;;;;;;;;;;;;;2.53;65.87;101401.06;4128831;28;20025;-62
2023/03/29 04:32:07;;;;;;;;;;;;;;;2.54;65.92;101405.47;4120252;28;20089;-63
2023/03/29 04:34:26;;;;;;;;;;;;;;;2.58;65.50;101406.94;4121607;28;20479;-64
2023/03/29 04:36:30;;;;;;;;;;;;;;;2.60;65.56;101404.16;4119850;28;20013;-63
2023/03/29 04:38:34;;;;;;;;;;;;;;;2.57;65.76;101405.25;4122480;28;20116;-63
2023/03/29 04:40:37;;;;;;;;;;;;;;;2.52;65.70;101402.91;4128312;28;20017;-63
2023/03/29 04:42:48;;;;;;;;;;;;;;;2.53;66.04;101401.06;4121017;28;20033;-64
2023/03/29 04:44:52;;;;;;;;;;;;;;;2.56;66.08;101400.00;4128556;28;20130;-63
2023/03/29 04:47:01;;;;;;;;;;;;;;;2.54;66.04;101392.13;4136649;28;20028;-63
2023/03/29 04:49:27;;;;;;;;;;;;;;;2.52;66.00;101388.69;4128021;28;20052;-64
2023/03/29 04:51:30;;;;;;;;;;;;;;;2.49;66.13;101389.78;4135778;28;20362;-63
2023/03/29 04:53:34;;;;;;;;;;;;;;;2.47;66.27;101389.00;4135067;28;20019;-63
2023/03/29 04:55:37;;;;;;;;;;;;;;;2.45;66.36;101387.44;4120489;28;20021;-60
2023/03/29 04:57:40;;;;;;;;;;;;;;;2.44;66.49;101391.06;4120360;28;20004;-64
2023/03/29 05:00:13;;;;;;;;;;;;;;;2.39;66.38;101390.53;4121655;28;20017;-62
2023/03/29 05:02:42;;;;;;;;;;;;;;;2.35;66.51;101387.22;4111479;28;20008;-64
2023/03/29 05:04:45;;;;;;;;;;;;;;;2.36;66.66;101380.94;4153608;28;20327;-64
2023/03/29 05:06:50;;;;;;;;;;;;;;;2.35;66.57;101387.22;4120802;28;20025;-63
2023/03/29 05:08:52;;;;;;;;;;;;;;;2.37;66.61;101379.09;4120555;28;20025;-64
2023/03/29 05:10:57;;;;;;;;;;;;;;;2.40;66.78;101384.22;4126334;28;20491;-64
2023/03/29 05:13:02;;;;;;;;;;;;;;;2.43;66.40;101378.69;4126247;28;20440;-62
2023/03/29 05:15:06;;;;;;;;;;;;;;;2.45;66.35;101372.28;4126181;28;20020;-61
2023/03/29 05:17:10;;;;;;;;;;;;;;;2.48;66.28;101368.56;4141558;28;20017;-60
2023/03/29 05:19:12;;;;;;;;;;;;;;;2.51;65.98;101363.00;4126512;28;20033;-64
2023/03/29 05:21:19;;;;;;;;;;;;;;;2.52;66.05;101364.69;4119443;28;20066;-62
2023/03/29 05:23:22;;;;;;;;;;;;;;;2.52;66.05;101370.03;4126451;28;20016;-62
2023/03/29 05:25:53;;;;;;;;;;;;;;;2.48;66.33;101353.41;4121712;28;20372;-62
2023/03/29 05:27:55;;;;;;;;;;;;;;;2.49;66.58;101357.78;4139690;28;20019;-61
2023/03/29 05:29:57;;;;;;;;;;;;;;;2.51;66.66;101363.84;4142873;28;20024;-62
2023/03/29 05:32:05;;;;;;;;;;;;;;;2.54;66.38;101360.13;4139553;28;20020;-64
2023/03/29 05:34:10;;;;;;;;;;;;;;;2.57;66.55;101365.25;4159422;28;20025;-64
2023/03/29 05:36:18;;;;;;;;;;;;;;;2.60;66.47;101353.47;4143471;28;20020;-64
2023/03/29 05:38:23;;;;;;;;;;;;;;;2.60;66.38;101351.69;4141858;28;20170;-64
2023/03/29 05:40:27;;;;;;;;;;;;;;;2.61;66.49;101353.38;4150430;28;20482;-62
2023/03/29 05:42:55;;;;;;;;;;;;;;;2.65;66.25;101352.19;4143378;28;20358;-64
2023/03/29 05:44:57;;;;;;;;;;;;;;;2.70;66.29;101349.19;4138016;28;20363;-64
2023/03/29 05:47:00;;;;;;;;;;;;;;;2.74;66.03;101350.66;4158950;28;20023;-63
2023/03/29 05:49:03;;;;;;;;;;;;;;;2.77;65.99;101352.28;4136777;28;20036;-62
2023/03/29 05:51:29;;;;;;;;;;;;;;;2.78;66.22;101343.31;4135335;28;20367;-64
2023/03/29 05:53:32;;;;;;;;;;;;;;;2.78;65.94;101352.16;4160225;28;20020;-64
2023/03/29 05:55:34;;;;;;;;;;;;;;;2.78;66.01;101349.50;4144820;28;20044;-64
2023/03/29 05:57:36;;;;;;;;;;;;;;;2.80;65.96;101344.88;4139198;28;20028;-65
2023/03/29 05:59:38;;;;;;;;;;;;;;;2.81;65.68;101351.94;4130158;28;20017;-63
2023/03/29 06:01:41;;;;;;;;;;;;;;;2.84;65.99;101338.38;4138626;28;20009;-61
2023/03/29 06:03:46;;;;;;;;;;;;;;;2.88;65.79;101347.88;4139692;28;20024;-63
2023/03/29 06:05:48;;;;;;;;;;;;;;;2.89;65.84;101349.56;4139665;28;20028;-61
2023/03/29 06:07:52;;;;;;;;;;;;;;;2.85;65.69;101353.44;4145852;28;20016;-62
2023/03/29 06:10:17;;;;;;;;;;;;;;;2.85;65.79;101349.88;4136779;28;20016;-63
2023/03/29 06:12:25;;;;;;;;;;;;;;;2.82;66.22;101352.78;4130821;28;20013;-62
2023/03/29 06:14:34;;;;;;;;;;;;;;;2.83;66.27;101358.00;4139153;28;20029;-62
2023/03/29 06:16:50;;;;;;;;;;;;;;;2.76;65.85;101345.22;4138584;28;20012;-63
2023/03/29 06:18:53;;;;;;;;;;;;;;;2.84;66.04;101353.53;4139024;28;20020;-63
2023/03/29 06:20:55;;;;;;;;;;;;;;;2.84;66.08;101350.88;4146756;28;20024;-58
2023/03/29 06:22:59;;;;;;;;;;;;;;;2.87;66.45;101348.81;4138305;28;20254;-61
2023/03/29 06:25:01;;;;;;;;;;;;;;;2.92;66.31;101352.97;4162775;28;20363;-62
2023/03/29 06:27:07;;;;;;;;;;;;;;;2.97;66.12;101348.16;4138288;28;20032;-61
2023/03/29 06:29:09;;;;;;;;;;;;;;;3.03;65.50;101339.69;4145902;28;20036;-59
2023/03/29 06:31:14;;;;;;;;;;;;;;;3.05;65.32;101346.59;4140561;28;20476;-62
2023/03/29 06:33:17;;;;;;;;;;;;;;;3.06;65.81;101353.66;4145214;28;20028;-63
2023/03/29 06:35:42;;;;;;;;;;;;;;;3.05;65.69;101353.75;4140362;28;20024;-59
2023/03/29 06:37:49;;;;;;;;;;;;;;;3.06;65.73;101350.16;4138169;28;20498;-61
2023/03/29 06:40:06;;;;;;;;;;;;;;;3.09;65.58;101351.72;4146217;28;20024;-62
2023/03/29 06:42:17;;;;;;;;;;;;;;;3.11;65.46;101339.97;4153610;28;20032;-62
2023/03/29 06:44:42;;;;;;;;;;;;;;;3.15;65.41;101344.13;4161596;28;20019;-62
2023/03/29 06:46:52;;;;;;;;;;;;;;;3.17;65.40;101342.19;4161477;28;20075;-62
2023/03/29 06:48:55;;;;;;;;;;;;;;;3.20;65.24;101341.13;4155067;28;20478;-61
2023/03/29 06:51:04;;;;;;;;;;;;;;;3.23;64.84;101336.38;4162333;28;20612;-61
2023/03/29 06:53:06;;;;;;;;;;;;;;;3.24;65.06;101343.44;4153804;28;20029;-61
2023/03/29 06:55:11;;;;;;;;;;;;;;;3.22;65.00;101334.69;4138673;28;20036;-63
2023/03/29 06:57:13;;;;;;;;;;;;;;;3.27;64.93;101336.16;4137682;28;20026;-61
2023/03/29 06:59:16;;;;;;;;;;;;;;;3.30;64.79;101333.25;4139746;28;20025;-61
2023/03/29 07:01:27;;;;;;;;;;;;;;;3.33;64.84;101330.38;4136795;28;20016;-65
2023/03/29 07:03:35;;;;;;;;;;;;;;;3.34;64.78;101334.72;4137032;28;20036;-62
2023/03/29 07:05:39;;;;;;;;;;;;;;;3.36;65.11;101330.13;4129439;28;20025;-61
2023/03/29 07:07:55;;;;;;;;;;;;;;;3.40;65.08;101331.59;4123320;28;20020;-63
2023/03/29 07:10:17;;;;;;;;;;;;;;;3.45;64.96;101324.09;4145453;28;20028;-60
2023/03/29 07:12:39;;;;;;;;;;;;;;;3.49;64.65;101327.38;4122249;28;20030;-60
2023/03/29 07:14:42;;;;;;;;;;;;;;;3.51;64.50;101328.09;4136170;28;20084;-60
2023/03/29 07:16:45;;;;;;;;;;;;;;;3.54;63.88;101328.75;4121497;28;20008;-61
2023/03/29 07:18:53;;;;;;;;;;;;;;;3.54;64.00;101333.22;4138012;28;20020;-65
2023/03/29 07:21:13;;;;;;;;;;;;;;;3.54;63.92;101331.41;4137875;28;20024;-58
2023/03/29 07:23:15;;;;;;;;;;;;;;;3.57;64.19;101344.53;4120824;28;19962;-62
2023/03/29 07:25:21;;;;;;;;;;;;;;;3.58;63.94;101332.03;4129026;28;20009;-59
2023/03/29 07:27:23;;;;;;;;;;;;;;;3.57;64.32;101335.66;4121286;28;20336;-59
2023/03/29 07:29:25;;;;;;;;;;;;;;;3.58;64.26;101332.03;4129207;28;20447;-62
2023/03/29 07:31:29;;;;;;;;;;;;;;;3.61;64.56;101327.28;4120273;28;20017;-64
2023/03/29 07:33:48;;;;;;;;;;;;;;;3.67;64.86;101328.66;4129029;28;19938;-58
2023/03/29 07:35:52;;;;;;;;;;;;;;;3.74;64.81;101335.22;4137407;28;20008;-63
2023/03/29 07:37:55;;;;;;;;;;;;;;;3.78;64.53;101334.00;4128394;28;20028;-62
2023/03/29 07:39:57;;;;;;;;;;;;;;;3.82;64.41;101323.09;4137594;28;20017;-63
2023/03/29 07:42:19;;;;;;;;;;;;;;;3.86;64.55;101338.78;4136966;28;20377;-62
2023/03/29 07:44:22;;;;;;;;;;;;;;;3.88;64.16;101331.47;4121068;28;20376;-63
2023/03/29 07:46:24;;;;;;;;;;;;;;;3.90;64.00;101334.03;4137463;28;20013;-63
2023/03/29 07:48:27;;;;;;;;;;;;;;;3.93;63.88;101326.66;4137581;28;19964;-64
2023/03/29 07:50:34;;;;;;;;;;;;;;;3.99;63.89;101317.28;4121054;28;20045;-64
2023/03/29 07:52:39;;;;;;;;;;;;;;;4.02;63.65;101322.38;4119856;28;20025;-64
2023/03/29 07:54:41;;;;;;;;;;;;;;;4.05;63.43;101313.28;4137550;28;20016;-63
2023/03/29 07:56:54;;;;;;;;;;;;;;;4.11;63.62;101310.97;4128352;28;20134;-61
2023/03/29 07:59:17;;;;;;;;;;;;;;;4.18;63.56;101313.16;4122677;28;20013;-63
2023/03/29 08:01:27;;;;;;;;;;;;;;;4.24;63.09;101310.00;4127750;28;20021;-62
2023/03/29 08:03:50;;;;;;;;;;;;;;;4.32;63.05;101299.53;4122847;28;20026;-64
2023/03/29 08:05:53;;;;;;;;;;;;;;;4.42;62.49;101307.66;4128103;28;20026;-63
2023/03/29 08:07:56;;;;;;;;;;;;;;;4.47;62.17;101308.19;4133607;28;20012;-63
2023/03/29 08:10:32;;;;;;;;;;;;;;;4.55;61.59;101319.09;4125575;28;20009;-63
2023/03/29 08:12:53;;;;;;;;;;;;;;;4.59;61.71;101317.03;4138313;28;19979;-63
2023/03/29 08:15:04;;;;;;;;;;;;;;;4.63;61.34;101316.66;4136975;28;20021;-60
2023/03/29 08:17:08;;;;;;;;;;;;;;;4.70;61.28;101322.34;4144876;28;20025;-61
2023/03/29 08:19:16;;;;;;;;;;;;;;;4.73;61.41;101319.41;4136823;28;20032;-62
2023/03/29 08:21:47;;;;;;;;;;;;;;;4.80;61.47;101311.75;4137398;28;20028;-63
2023/03/29 08:23:56;;;;;;;;;;;;;;;4.84;61.27;101316.75;4145037;28;20016;-64
2023/03/29 08:26:08;;;;;;;;;;;;;;;4.90;61.30;101330.59;4137024;28;20447;-62
2023/03/29 08:28:13;;;;;;;;;;;;;;;4.95;61.71;101313.16;4144249;28;20020;-64
2023/03/29 08:30:22;;;;;;;;;;;;;;;5.00;61.50;101307.44;4136623;28;20024;-64
2023/03/29 08:32:25;;;;;;;;;;;;;;;5.05;61.50;101326.66;4160129;28;20016;-64
2023/03/29 08:34:27;;;;;;;;;;;;;;;5.08;61.63;101318.38;4145279;28;20008;-63
2023/03/29 08:36:32;;;;;;;;;;;;;;;5.13;61.50;101315.31;4138037;28;20025;-63
2023/03/29 08:38:40;;;;;;;;;;;;;;;5.16;61.19;101307.03;4144810;28;20040;-63
2023/03/29 08:40:42;;;;;;;;;;;;;;;5.21;61.97;101300.28;4144761;28;20049;-64
2023/03/29 08:42:54;;;;;;;;;;;;;;;5.25;61.51;101295.56;4152158;28;20033;-64
2023/03/29 08:45:02;;;;;;;;;;;;;;;5.30;61.59;101298.69;4137048;28;20036;-64
2023/03/29 08:47:07;;;;;;;;;;;;;;;5.39;62.02;101297.91;4152803;28;20005;-64
2023/03/29 08:49:16;;;;;;;;;;;;;;;5.47;61.86;101296.41;4144418;28;20020;-65
2023/03/29 08:51:20;;;;;;;;;;;;;;;5.52;61.06;101296.88;4160522;28;20020;-64
2023/03/29 08:53:23;;;;;;;;;;;;;;;5.57;60.45;101300.00;4143526;28;21868;-64
2023/03/29 08:55:58;;;;;;;;;;;;;;;5.65;60.16;101294.00;4129149;28;20362;-64
2023/03/29 08:58:23;;;;;;;;;;;;;;;5.75;60.40;101287.72;4138203;28;20489;-63
2023/03/29 09:00:25;;;;;;;;;;;;;;;5.84;60.08;101287.91;4136508;28;20020;-62
2023/03/29 09:02:30;;;;;;;;;;;;;;;5.92;60.38;101283.56;4137133;28;20369;-63
2023/03/29 09:04:36;;;;;;;;;;;;;;;6.00;60.11;101280.22;4160363;28;20012;-64
2023/03/29 09:06:57;;;;;;;;;;;;;;;6.03;59.50;101271.91;4137803;28;20017;-64
2023/03/29 09:09:06;;;;;;;;;;;;;;;6.09;59.06;101275.91;4143853;28;20094;-64
2023/03/29 09:11:21;;;;;;;;;;;;;;;6.13;59.34;101266.63;4137924;28;20108;-65
2023/03/29 09:13:28;;;;;;;;;;;;;;;6.16;59.10;101258.31;4135227;28;20366;-65
2023/03/29 09:15:31;;;;;;;;;;;;;;;6.23;59.23;101269.34;4143433;28;20035;-65
2023/03/29 09:17:49;;;;;;;;;;;;;;;6.35;59.26;101264.69;4160148;28;20062;-64
2023/03/29 09:19:55;;;;;;;;;;;;;;;6.42;58.57;101252.44;4151888;28;20016;-65
2023/03/29 09:21:58;;;;;;;;;;;;;;;6.48;58.63;101257.25;4135729;28;20016;-64
2023/03/29 09:24:07;;;;;;;;;;;;;;;6.54;58.60;101255.88;4138264;28;20033;-65
2023/03/29 09:26:22;;;;;;;;;;;;;;;6.61;58.76;101267.75;4136280;28;20013;-64
2023/03/29 09:28:50;;;;;;;;;;;;;;;6.65;59.02;101261.97;4128689;28;20020;-63
2023/03/29 09:30:54;;;;;;;;;;;;;;;6.63;58.25;101255.03;4129974;28;20005;-63
2023/03/29 09:32:58;;;;;;;;;;;;;;;6.66;58.40;101252.06;4122495;28;20013;-63
2023/03/29 09:35:13;;;;;;;;;;;;;;;6.68;58.58;101264.38;4130407;28;20016;-65
2023/03/29 09:37:15;;;;;;;;;;;;;;;6.70;58.56;101249.97;4130523;28;20024;-65
2023/03/29 09:39:19;;;;;;;;;;;;;;;6.72;58.98;101254.19;4139798;28;20033;-63
2023/03/29 09:41:26;;;;;;;;;;;;;;;6.76;58.78;101241.34;4139201;28;20009;-65
2023/03/29 09:43:29;;;;;;;;;;;;;;;6.80;58.53;101248.13;4129854;28;20028;-63
2023/03/29 09:45:33;;;;;;;;;;;;;;;6.82;58.81;101247.00;4123327;28;20033;-65
2023/03/29 09:47:35;;;;;;;;;;;;;;;6.84;58.19;101241.50;4122056;28;20021;-61
2023/03/29 09:49:43;;;;;;;;;;;;;;;6.88;58.20;101234.00;4139584;28;20048;-60
2023/03/29 09:51:46;;;;;;;;;;;;;;;6.92;57.84;101236.25;4138994;28;20337;-61
2023/03/29 09:53:48;;;;;;;;;;;;;;;7.00;58.52;101246.31;4123374;28;20400;-62
2023/03/29 09:56:11;;;;;;;;;;;;;;;6.99;57.46;101233.84;4130809;28;20024;-63
2023/03/29 09:58:29;;;;;;;;;;;;;;;6.98;58.07;101238.38;4140356;28;20307;-63
2023/03/29 10:00:32;;;;;;;;;;;;;;;7.06;58.62;101232.31;4139780;28;20385;-62
2023/03/29 10:02:34;;;;;;;;;;;;;;;7.11;58.44;101232.72;4140232;28;20017;-61
2023/03/29 10:04:37;;;;;;;;;;;;;;;7.15;58.08;101241.38;4145456;28;20947;-64
2023/03/29 10:06:43;;;;;;;;;;;;;;;7.19;58.14;101229.31;4134779;28;20052;-62
2023/03/29 10:08:46;;;;;;;;;;;;;;;7.22;58.27;101232.59;4130741;28;19965;-63
2023/03/29 10:10:48;;;;;;;;;;;;;;;7.23;58.06;101246.88;4130529;28;20478;-61
2023/03/29 10:12:52;;;;;;;;;;;;;;;7.28;58.09;101235.69;4124107;28;20009;-62
2023/03/29 10:14:54;;;;;;;;;;;;;;;7.31;57.68;101235.41;4124655;28;20033;-62
2023/03/29 10:16:56;;;;;;;;;;;;;;;7.35;58.42;101237.66;4123685;28;20024;-63
2023/03/29 10:18:58;;;;;;;;;;;;;;;7.36;58.29;101223.22;4124747;28;20353;-63
2023/03/29 10:21:01;;;;;;;;;;;;;;;7.34;57.61;101219.00;4124312;28;20467;-63
2023/03/29 10:23:05;;;;;;;;;;;;;;;7.36;58.56;101230.44;4123565;28;20022;-63
2023/03/29 10:25:12;;;;;;;;;;;;;;;7.42;58.67;101210.22;4123699;28;20026;-64
2023/03/29 10:27:14;;;;;;;;;;;;;;;7.45;58.54;101226.06;4123894;28;20008;-63
2023/03/29 10:29:16;;;;;;;;;;;;;;;7.45;57.56;101209.94;4124401;28;20025;-63
2023/03/29 10:31:18;;;;;;;;;;;;;;;7.50;58.02;101197.72;4124230;28;20028;-61
2023/03/29 10:33:22;;;;;;;;;;;;;;;7.57;58.31;101198.00;4139124;28;20247;-64
2023/03/29 10:35:25;;;;;;;;;;;;;;;7.61;57.81;101212.00;4139247;28;20020;-64
2023/03/29 10:37:27;;;;;;;;;;;;;;;7.67;57.68;101204.19;4130666;28;20041;-63
2023/03/29 10:39:32;;;;;;;;;;;;;;;7.71;57.69;101213.66;4129922;28;20476;-64
2023/03/29 10:41:34;;;;;;;;;;;;;;;7.78;57.88;101221.16;4122769;28;20384;-64
2023/03/29 10:43:37;;;;;;;;;;;;;;;7.86;57.92;101207.81;4123406;28;20029;-64
2023/03/29 10:45:39;;;;;;;;;;;;;;;7.90;57.90;101199.28;4123850;28;20024;-64
2023/03/29 10:47:41;;;;;;;;;;;;;;;7.93;57.65;101199.00;4123365;28;20013;-63
2023/03/29 10:49:45;;;;;;;;;;;;;;;7.95;58.17;101185.41;4124172;28;20515;-63
2023/03/29 10:51:48;;;;;;;;;;;;;;;7.94;57.50;101181.00;4123271;28;20013;-63
2023/03/29 10:53:50;;;;;;;;;;;;;;;7.94;58.20;101186.38;4123280;28;20432;-63
2023/03/29 10:55:56;;;;;;;;;;;;;;;7.89;57.40;101173.38;4123558;28;20454;-62
2023/03/29 10:58:00;;;;;;;;;;;;;;;7.95;57.65;101174.66;4123400;28;20018;-64
2023/03/29 11:00:05;;;;;;;;;;;;;;;7.99;57.72;101175.19;4123125;28;20028;-63